sensor_id;sensor_type;location;lat;lon;timestamp;temperature;humidity
43520;DHT22;46848;51.980;5.918;2023-03-02T00:01:44;4.30;69.70
43520;DHT22;46848;51.980;5.918;2023-03-02T00:04:14;4.30;69.90
43520;DHT22;46848;51.980;5.918;2023-03-02T00:06:40;4.30;70.10
43520;DHT22;46848;51.980;5.918;2023-03-02T00:09:06;4.30;70.10
43520;DHT22;46848;51.980;5.918;2023-03-02T00:11:33;4.30;70.20
43520;DHT22;46848;51.980;5.918;2023-03-02T00:13:59;4.30;70.50
43520;DHT22;46848;51.980;5.918;2023-03-02T00:16:25;4.30;71.40
43520;DHT22;46848;51.980;5.918;2023-03-02T00:18:51;4.30;71.90
43520;DHT22;46848;51.980;5.918;2023-03-02T00:21:17;4.20;72.60
43520;DHT22;46848;51.980;5.918;2023-03-02T00:23:42;4.10;72.60
43520;DHT22;46848;51.980;5.918;2023-03-02T00:26:09;4.20;72.70
43520;DHT22;46848;51.980;5.918;2023-03-02T00:28:34;4.10;73.00
43520;DHT22;46848;51.980;5.918;2023-03-02T00:31:03;4.00;73.50
43520;DHT22;46848;51.980;5.918;2023-03-02T00:33:30;4.00;73.30
43520;DHT22;46848;51.980;5.918;2023-03-02T00:35:57;3.90;73.80
43520;DHT22;46848;51.980;5.918;2023-03-02T00:38:23;3.90;74.10
43520;DHT22;46848;51.980;5.918;2023-03-02T00:40:49;3.90;74.50
43520;DHT22;46848;51.980;5.918;2023-03-02T00:43:15;3.80;74.80
43520;DHT22;46848;51.980;5.918;2023-03-02T00:45:41;3.80;74.60
43520;DHT22;46848;51.980;5.918;2023-03-02T00:48:08;3.90;74.00
43520;DHT22;46848;51.980;5.918;2023-03-02T00:50:34;3.90;75.80
43520;DHT22;46848;51.980;5.918;2023-03-02T00:53:06;3.90;76.10
43520;DHT22;46848;51.980;5.918;2023-03-02T00:55:32;3.80;76.20
43520;DHT22;46848;51.980;5.918;2023-03-02T00:57:58;3.90;75.30
43520;DHT22;46848;51.980;5.918;2023-03-02T01:00:24;3.90;75.20
43520;DHT22;46848;51.980;5.918;2023-03-02T01:02:54;3.90;75.30
43520;DHT22;46848;51.980;5.918;2023-03-02T01:05:20;3.90;76.00
43520;DHT22;46848;51.980;5.918;2023-03-02T01:07:45;3.90;75.80
43520;DHT22;46848;51.980;5.918;2023-03-02T01:10:11;3.90;76.70
43520;DHT22;46848;51.980;5.918;2023-03-02T01:12:38;3.90;77.30
43520;DHT22;46848;51.980;5.918;2023-03-02T01:15:04;3.80;78.50
43520;DHT22;46848;51.980;5.918;2023-03-02T01:17:30;3.70;78.60
43520;DHT22;46848;51.980;5.918;2023-03-02T01:19:56;3.70;78.90
43520;DHT22;46848;51.980;5.918;2023-03-02T01:22:22;3.60;79.00
43520;DHT22;46848;51.980;5.918;2023-03-02T01:24:49;3.70;78.40
43520;DHT22;46848;51.980;5.918;2023-03-02T01:27:15;3.70;78.50
43520;DHT22;46848;51.980;5.918;2023-03-02T01:29:40;3.70;78.40
43520;DHT22;46848;51.980;5.918;2023-03-02T01:32:06;3.70;78.50
43520;DHT22;46848;51.980;5.918;2023-03-02T01:34:32;3.70;78.20
43520;DHT22;46848;51.980;5.918;2023-03-02T01:36:58;3.70;78.30
43520;DHT22;46848;51.980;5.918;2023-03-02T01:39:23;3.70;78.00
43520;DHT22;46848;51.980;5.918;2023-03-02T01:41:50;3.70;78.20
43520;DHT22;46848;51.980;5.918;2023-03-02T01:44:38;3.70;78.10
43520;DHT22;46848;51.980;5.918;2023-03-02T01:47:20;3.60;78.20
43520;DHT22;46848;51.980;5.918;2023-03-02T01:49:52;3.70;77.70
43520;DHT22;46848;51.980;5.918;2023-03-02T01:52:20;3.70;77.40
43520;DHT22;46848;51.980;5.918;2023-03-02T01:54:46;3.70;77.40
43520;DHT22;46848;51.980;5.918;2023-03-02T01:57:20;3.80;77.20
43520;DHT22;46848;51.980;5.918;2023-03-02T01:59:46;3.70;77.90
43520;DHT22;46848;51.980;5.918;2023-03-02T02:02:12;3.70;78.10
43520;DHT22;46848;51.980;5.918;2023-03-02T02:04:40;3.70;77.80
43520;DHT22;46848;51.980;5.918;2023-03-02T02:07:08;3.80;77.50
43520;DHT22;46848;51.980;5.918;2023-03-02T02:09:43;3.70;77.80
43520;DHT22;46848;51.980;5.918;2023-03-02T02:12:15;3.70;77.60
43520;DHT22;46848;51.980;5.918;2023-03-02T02:14:48;3.70;77.70
43520;DHT22;46848;51.980;5.918;2023-03-02T02:17:15;3.70;77.50
43520;DHT22;46848;51.980;5.918;2023-03-02T02:20:10;3.70;77.40
43520;DHT22;46848;51.980;5.918;2023-03-02T02:23:03;3.70;76.90
43520;DHT22;46848;51.980;5.918;2023-03-02T02:28:22;3.70;76.30
43520;DHT22;46848;51.980;5.918;2023-03-02T02:31:01;3.70;76.00
43520;DHT22;46848;51.980;5.918;2023-03-02T02:33:28;3.70;75.70
43520;DHT22;46848;51.980;5.918;2023-03-02T02:35:59;3.70;75.50
43520;DHT22;46848;51.980;5.918;2023-03-02T02:38:26;3.70;75.50
43520;DHT22;46848;51.980;5.918;2023-03-02T02:40:57;3.70;75.80
43520;DHT22;46848;51.980;5.918;2023-03-02T02:43:24;3.70;75.00
43520;DHT22;46848;51.980;5.918;2023-03-02T02:45:53;3.60;76.10
43520;DHT22;46848;51.980;5.918;2023-03-02T02:48:23;3.50;76.40
43520;DHT22;46848;51.980;5.918;2023-03-02T02:50:51;3.50;76.40
43520;DHT22;46848;51.980;5.918;2023-03-02T02:53:28;3.40;76.20
43520;DHT22;46848;51.980;5.918;2023-03-02T02:55:56;3.50;75.80
43520;DHT22;46848;51.980;5.918;2023-03-02T03:01:00;3.50;75.00
43520;DHT22;46848;51.980;5.918;2023-03-02T03:03:32;3.60;75.30
43520;DHT22;46848;51.980;5.918;2023-03-02T03:06:01;3.50;75.30
43520;DHT22;46848;51.980;5.918;2023-03-02T03:11:09;3.30;76.70
43520;DHT22;46848;51.980;5.918;2023-03-02T03:13:36;3.30;76.90
43520;DHT22;46848;51.980;5.918;2023-03-02T03:16:03;3.30;76.80
43520;DHT22;46848;51.980;5.918;2023-03-02T03:18:30;3.30;76.70
43520;DHT22;46848;51.980;5.918;2023-03-02T03:20:56;3.30;77.20
43520;DHT22;46848;51.980;5.918;2023-03-02T03:23:24;3.30;77.40
43520;DHT22;46848;51.980;5.918;2023-03-02T03:25:49;3.20;77.60
43520;DHT22;46848;51.980;5.918;2023-03-02T03:28:15;3.20;77.50
43520;DHT22;46848;51.980;5.918;2023-03-02T03:30:42;3.10;77.40
43520;DHT22;46848;51.980;5.918;2023-03-02T03:33:08;3.20;77.30
43520;DHT22;46848;51.980;5.918;2023-03-02T03:35:38;3.10;77.30
43520;DHT22;46848;51.980;5.918;2023-03-02T03:38:05;3.10;77.50
43520;DHT22;46848;51.980;5.918;2023-03-02T03:40:32;3.10;77.50
43520;DHT22;46848;51.980;5.918;2023-03-02T03:43:01;3.10;78.00
43520;DHT22;46848;51.980;5.918;2023-03-02T03:45:26;3.00;78.40
43520;DHT22;46848;51.980;5.918;2023-03-02T03:47:52;3.00;78.20
43520;DHT22;46848;51.980;5.918;2023-03-02T03:50:18;3.00;78.50
43520;DHT22;46848;51.980;5.918;2023-03-02T03:52:44;3.00;77.90
43520;DHT22;46848;51.980;5.918;2023-03-02T03:55:09;3.00;77.90
43520;DHT22;46848;51.980;5.918;2023-03-02T03:57:35;3.00;77.80
43520;DHT22;46848;51.980;5.918;2023-03-02T04:00:02;3.00;77.80
43520;DHT22;46848;51.980;5.918;2023-03-02T04:02:30;3.00;77.70
43520;DHT22;46848;51.980;5.918;2023-03-02T04:04:56;2.90;77.80
43520;DHT22;46848;51.980;5.918;2023-03-02T04:07:33;2.90;77.80
43520;DHT22;46848;51.980;5.918;2023-03-02T04:09:59;2.90;77.80
43520;DHT22;46848;51.980;5.918;2023-03-02T04:12:28;2.90;77.50
43520;DHT22;46848;51.980;5.918;2023-03-02T04:14:54;2.90;77.60
43520;DHT22;46848;51.980;5.918;2023-03-02T04:17:20;2.90;77.80
43520;DHT22;46848;51.980;5.918;2023-03-02T04:19:45;2.90;77.80
43520;DHT22;46848;51.980;5.918;2023-03-02T04:22:11;2.80;78.10
43520;DHT22;46848;51.980;5.918;2023-03-02T04:24:37;2.80;78.20
43520;DHT22;46848;51.980;5.918;2023-03-02T04:27:02;2.70;78.50
43520;DHT22;46848;51.980;5.918;2023-03-02T04:29:28;2.70;78.80
43520;DHT22;46848;51.980;5.918;2023-03-02T04:31:56;2.70;78.70
43520;DHT22;46848;51.980;5.918;2023-03-02T04:34:22;2.60;79.20
43520;DHT22;46848;51.980;5.918;2023-03-02T04:36:50;2.60;79.30
43520;DHT22;46848;51.980;5.918;2023-03-02T04:39:17;2.60;79.50
43520;DHT22;46848;51.980;5.918;2023-03-02T04:41:43;2.60;79.10
43520;DHT22;46848;51.980;5.918;2023-03-02T04:44:09;2.60;79.20
43520;DHT22;46848;51.980;5.918;2023-03-02T04:46:34;2.60;79.30
43520;DHT22;46848;51.980;5.918;2023-03-02T04:49:00;2.60;79.10
43520;DHT22;46848;51.980;5.918;2023-03-02T04:51:30;2.60;78.90
43520;DHT22;46848;51.980;5.918;2023-03-02T04:53:59;2.60;78.70
43520;DHT22;46848;51.980;5.918;2023-03-02T04:56:25;2.60;78.60
43520;DHT22;46848;51.980;5.918;2023-03-02T04:58:51;2.60;78.40
43520;DHT22;46848;51.980;5.918;2023-03-02T05:01:18;2.70;78.20
43520;DHT22;46848;51.980;5.918;2023-03-02T05:03:44;2.60;78.10
43520;DHT22;46848;51.980;5.918;2023-03-02T05:06:10;2.60;78.20
43520;DHT22;46848;51.980;5.918;2023-03-02T05:08:36;2.60;77.90
43520;DHT22;46848;51.980;5.918;2023-03-02T05:11:03;2.60;78.00
43520;DHT22;46848;51.980;5.918;2023-03-02T05:13:29;2.60;77.60
43520;DHT22;46848;51.980;5.918;2023-03-02T05:15:54;2.60;77.00
43520;DHT22;46848;51.980;5.918;2023-03-02T05:18:23;2.60;76.70
43520;DHT22;46848;51.980;5.918;2023-03-02T05:20:50;2.70;76.20
43520;DHT22;46848;51.980;5.918;2023-03-02T05:23:17;2.70;75.40
43520;DHT22;46848;51.980;5.918;2023-03-02T05:25:53;2.70;75.30
43520;DHT22;46848;51.980;5.918;2023-03-02T05:28:21;2.60;75.20
43520;DHT22;46848;51.980;5.918;2023-03-02T05:30:47;2.60;75.30
43520;DHT22;46848;51.980;5.918;2023-03-02T05:33:13;2.60;75.80
43520;DHT22;46848;51.980;5.918;2023-03-02T05:35:39;2.50;76.00
43520;DHT22;46848;51.980;5.918;2023-03-02T05:38:05;2.50;76.70
43520;DHT22;46848;51.980;5.918;2023-03-02T05:40:30;2.50;76.60
43520;DHT22;46848;51.980;5.918;2023-03-02T05:42:56;2.50;76.70
43520;DHT22;46848;51.980;5.918;2023-03-02T05:45:26;2.40;76.90
43520;DHT22;46848;51.980;5.918;2023-03-02T05:47:51;2.40;77.30
43520;DHT22;46848;51.980;5.918;2023-03-02T05:50:17;2.30;77.50
43520;DHT22;46848;51.980;5.918;2023-03-02T05:52:43;2.30;77.50
43520;DHT22;46848;51.980;5.918;2023-03-02T05:55:14;2.40;77.40
43520;DHT22;46848;51.980;5.918;2023-03-02T05:57:40;2.30;77.80
43520;DHT22;46848;51.980;5.918;2023-03-02T06:00:06;2.30;77.60
43520;DHT22;46848;51.980;5.918;2023-03-02T06:02:32;2.30;77.70
43520;DHT22;46848;51.980;5.918;2023-03-02T06:04:58;2.30;78.30
43520;DHT22;46848;51.980;5.918;2023-03-02T06:07:24;2.30;77.50
43520;DHT22;46848;51.980;5.918;2023-03-02T06:09:51;2.30;77.40
43520;DHT22;46848;51.980;5.918;2023-03-02T06:12:17;2.30;77.50
43520;DHT22;46848;51.980;5.918;2023-03-02T06:14:43;2.30;77.40
43520;DHT22;46848;51.980;5.918;2023-03-02T06:17:09;2.30;77.50
43520;DHT22;46848;51.980;5.918;2023-03-02T06:19:35;2.20;77.50
43520;DHT22;46848;51.980;5.918;2023-03-02T06:22:01;2.20;77.50
43520;DHT22;46848;51.980;5.918;2023-03-02T06:24:27;2.20;77.30
43520;DHT22;46848;51.980;5.918;2023-03-02T06:26:53;2.30;77.10
43520;DHT22;46848;51.980;5.918;2023-03-02T06:29:20;2.30;77.00
43520;DHT22;46848;51.980;5.918;2023-03-02T06:31:46;2.50;76.80
43520;DHT22;46848;51.980;5.918;2023-03-02T06:34:12;2.50;76.60
43520;DHT22;46848;51.980;5.918;2023-03-02T06:36:38;2.60;76.30
43520;DHT22;46848;51.980;5.918;2023-03-02T06:39:05;2.70;76.20
43520;DHT22;46848;51.980;5.918;2023-03-02T06:41:31;2.70;75.70
43520;DHT22;46848;51.980;5.918;2023-03-02T06:43:59;2.80;75.20
43520;DHT22;46848;51.980;5.918;2023-03-02T06:46:26;2.90;75.00
43520;DHT22;46848;51.980;5.918;2023-03-02T06:48:51;2.90;74.40
43520;DHT22;46848;51.980;5.918;2023-03-02T06:51:17;2.90;73.90
43520;DHT22;46848;51.980;5.918;2023-03-02T06:53:44;2.90;73.80
43520;DHT22;46848;51.980;5.918;2023-03-02T06:56:15;3.10;73.80
43520;DHT22;46848;51.980;5.918;2023-03-02T06:58:41;3.10;73.30
43520;DHT22;46848;51.980;5.918;2023-03-02T07:01:07;3.20;73.00
43520;DHT22;46848;51.980;5.918;2023-03-02T07:03:32;3.30;72.80
43520;DHT22;46848;51.980;5.918;2023-03-02T07:05:58;3.30;72.40
43520;DHT22;46848;51.980;5.918;2023-03-02T07:08:24;3.40;71.80
43520;DHT22;46848;51.980;5.918;2023-03-02T07:10:50;3.40;71.70
43520;DHT22;46848;51.980;5.918;2023-03-02T07:13:15;3.40;71.00
43520;DHT22;46848;51.980;5.918;2023-03-02T07:15:42;3.40;71.20
43520;DHT22;46848;51.980;5.918;2023-03-02T07:18:08;3.40;71.20
43520;DHT22;46848;51.980;5.918;2023-03-02T07:20:34;3.50;71.40
43520;DHT22;46848;51.980;5.918;2023-03-02T07:23:00;3.50;71.10
43520;DHT22;46848;51.980;5.918;2023-03-02T07:25:29;3.80;71.60
43520;DHT22;46848;51.980;5.918;2023-03-02T07:27:55;4.20;71.30
43520;DHT22;46848;51.980;5.918;2023-03-02T07:30:22;4.70;70.50
43520;DHT22;46848;51.980;5.918;2023-03-02T07:32:51;5.30;69.50
43520;DHT22;46848;51.980;5.918;2023-03-02T07:35:18;5.80;67.60
43520;DHT22;46848;51.980;5.918;2023-03-02T07:37:43;6.00;64.60
43520;DHT22;46848;51.980;5.918;2023-03-02T07:40:12;6.30;65.20
43520;DHT22;46848;51.980;5.918;2023-03-02T07:42:39;6.60;64.40
43520;DHT22;46848;51.980;5.918;2023-03-02T07:45:07;6.70;62.30
43520;DHT22;46848;51.980;5.918;2023-03-02T07:47:33;6.80;61.90
43520;DHT22;46848;51.980;5.918;2023-03-02T07:49:58;6.90;61.70
43520;DHT22;46848;51.980;5.918;2023-03-02T07:52:24;7.00;60.90
43520;DHT22;46848;51.980;5.918;2023-03-02T07:54:50;7.10;60.70
43520;DHT22;46848;51.980;5.918;2023-03-02T07:57:16;7.30;61.20
43520;DHT22;46848;51.980;5.918;2023-03-02T07:59:43;7.60;60.50
43520;DHT22;46848;51.980;5.918;2023-03-02T08:02:16;7.90;60.30
43520;DHT22;46848;51.980;5.918;2023-03-02T08:04:42;8.10;59.70
43520;DHT22;46848;51.980;5.918;2023-03-02T08:07:08;8.40;59.40
43520;DHT22;46848;51.980;5.918;2023-03-02T08:09:36;8.70;59.10
43520;DHT22;46848;51.980;5.918;2023-03-02T08:12:02;8.80;57.90
43520;DHT22;46848;51.980;5.918;2023-03-02T08:14:36;9.20;58.70
43520;DHT22;46848;51.980;5.918;2023-03-02T08:17:10;9.50;57.20
43520;DHT22;46848;51.980;5.918;2023-03-02T08:19:36;9.70;57.50
43520;DHT22;46848;51.980;5.918;2023-03-02T08:22:15;10.10;58.30
43520;DHT22;46848;51.980;5.918;2023-03-02T08:24:40;10.40;58.60
43520;DHT22;46848;51.980;5.918;2023-03-02T08:27:27;10.70;56.50
43520;DHT22;46848;51.980;5.918;2023-03-02T08:29:54;10.80;55.00
43520;DHT22;46848;51.980;5.918;2023-03-02T08:32:24;10.90;56.10
43520;DHT22;46848;51.980;5.918;2023-03-02T08:34:49;11.00;57.60
43520;DHT22;46848;51.980;5.918;2023-03-02T08:37:30;11.00;55.40
43520;DHT22;46848;51.980;5.918;2023-03-02T08:40:05;11.10;57.00
43520;DHT22;46848;51.980;5.918;2023-03-02T08:42:31;11.20;58.40
43520;DHT22;46848;51.980;5.918;2023-03-02T08:44:58;11.30;59.50
43520;DHT22;46848;51.980;5.918;2023-03-02T08:47:45;11.50;57.90
43520;DHT22;46848;51.980;5.918;2023-03-02T08:50:57;11.90;60.00
43520;DHT22;46848;51.980;5.918;2023-03-02T08:53:44;12.00;57.50
43520;DHT22;46848;51.980;5.918;2023-03-02T08:56:26;12.10;56.60
43520;DHT22;46848;51.980;5.918;2023-03-02T08:58:56;12.20;60.30
43520;DHT22;46848;51.980;5.918;2023-03-02T09:01:29;12.40;57.90
43520;DHT22;46848;51.980;5.918;2023-03-02T09:04:08;12.50;59.10
43520;DHT22;46848;51.980;5.918;2023-03-02T09:06:38;12.90;57.40
43520;DHT22;46848;51.980;5.918;2023-03-02T09:09:12;13.10;58.80
43520;DHT22;46848;51.980;5.918;2023-03-02T09:11:58;13.10;60.10
43520;DHT22;46848;51.980;5.918;2023-03-02T09:14:46;13.10;57.70
43520;DHT22;46848;51.980;5.918;2023-03-02T09:17:18;13.10;52.30
43520;DHT22;46848;51.980;5.918;2023-03-02T09:19:49;12.90;57.60
43520;DHT22;46848;51.980;5.918;2023-03-02T09:22:17;13.10;61.90
43520;DHT22;46848;51.980;5.918;2023-03-02T09:24:46;13.30;58.10
43520;DHT22;46848;51.980;5.918;2023-03-02T09:27:16;13.30;58.60
43520;DHT22;46848;51.980;5.918;2023-03-02T09:29:45;13.40;59.80
43520;DHT22;46848;51.980;5.918;2023-03-02T09:32:13;13.60;62.20
43520;DHT22;46848;51.980;5.918;2023-03-02T09:34:41;13.60;59.60
43520;DHT22;46848;51.980;5.918;2023-03-02T09:37:20;13.50;60.20
43520;DHT22;46848;51.980;5.918;2023-03-02T09:39:48;13.50;57.80
43520;DHT22;46848;51.980;5.918;2023-03-02T09:49:09;13.20;58.10
43520;DHT22;46848;51.980;5.918;2023-03-02T09:51:46;13.20;58.60
43520;DHT22;46848;51.980;5.918;2023-03-02T09:54:39;13.30;57.50
43520;DHT22;46848;51.980;5.918;2023-03-02T09:57:35;13.40;56.80
43520;DHT22;46848;51.980;5.918;2023-03-02T10:03:05;13.80;61.80
43520;DHT22;46848;51.980;5.918;2023-03-02T10:05:52;14.00;59.40
43520;DHT22;46848;51.980;5.918;2023-03-02T10:08:34;14.00;56.10
43520;DHT22;46848;51.980;5.918;2023-03-02T10:12:04;14.10;58.50
43520;DHT22;46848;51.980;5.918;2023-03-02T10:18:10;14.20;54.20
43520;DHT22;46848;51.980;5.918;2023-03-02T10:27:21;13.40;58.30
43520;DHT22;46848;51.980;5.918;2023-03-02T10:32:49;13.40;54.60
43520;DHT22;46848;51.980;5.918;2023-03-02T10:35:18;13.20;51.50
43520;DHT22;46848;51.980;5.918;2023-03-02T10:37:46;13.20;54.50
43520;DHT22;46848;51.980;5.918;2023-03-02T10:40:41;13.30;56.60
43520;DHT22;46848;51.980;5.918;2023-03-02T10:43:17;13.40;54.80
43520;DHT22;46848;51.980;5.918;2023-03-02T10:45:44;13.50;55.00
43520;DHT22;46848;51.980;5.918;2023-03-02T10:48:12;13.50;54.20
43520;DHT22;46848;51.980;5.918;2023-03-02T10:50:44;13.70;52.30
43520;DHT22;46848;51.980;5.918;2023-03-02T10:53:18;13.80;54.40
43520;DHT22;46848;51.980;5.918;2023-03-02T10:55:46;13.90;51.50
43520;DHT22;46848;51.980;5.918;2023-03-02T10:58:31;13.90;51.80
43520;DHT22;46848;51.980;5.918;2023-03-02T11:01:14;13.80;51.10
43520;DHT22;46848;51.980;5.918;2023-03-02T11:03:40;13.80;51.00
43520;DHT22;46848;51.980;5.918;2023-03-02T11:06:19;13.80;48.90
43520;DHT22;46848;51.980;5.918;2023-03-02T11:09:06;13.90;51.80
43520;DHT22;46848;51.980;5.918;2023-03-02T11:11:32;14.00;50.50
43520;DHT22;46848;51.980;5.918;2023-03-02T11:14:29;13.90;46.90
43520;DHT22;46848;51.980;5.918;2023-03-02T11:16:56;13.60;48.00
43520;DHT22;46848;51.980;5.918;2023-03-02T11:19:36;13.60;50.70
43520;DHT22;46848;51.980;5.918;2023-03-02T11:22:13;13.60;50.30
43520;DHT22;46848;51.980;5.918;2023-03-02T11:24:45;13.60;50.50
43520;DHT22;46848;51.980;5.918;2023-03-02T11:27:21;13.70;50.80
43520;DHT22;46848;51.980;5.918;2023-03-02T11:29:54;13.60;47.70
43520;DHT22;46848;51.980;5.918;2023-03-02T11:32:30;13.60;49.80
43520;DHT22;46848;51.980;5.918;2023-03-02T11:38:03;13.60;47.60
43520;DHT22;46848;51.980;5.918;2023-03-02T11:40:35;13.40;48.60
43520;DHT22;46848;51.980;5.918;2023-03-02T11:43:03;13.50;49.60
43520;DHT22;46848;51.980;5.918;2023-03-02T11:45:35;13.40;48.40
43520;DHT22;46848;51.980;5.918;2023-03-02T11:48:04;13.50;48.20
43520;DHT22;46848;51.980;5.918;2023-03-02T11:50:40;13.50;47.90
43520;DHT22;46848;51.980;5.918;2023-03-02T11:53:13;13.50;48.80
43520;DHT22;46848;51.980;5.918;2023-03-02T11:55:46;13.50;47.70
43520;DHT22;46848;51.980;5.918;2023-03-02T11:58:21;13.50;49.10
43520;DHT22;46848;51.980;5.918;2023-03-02T12:00:49;13.60;47.90
43520;DHT22;46848;51.980;5.918;2023-03-02T12:06:07;13.70;48.10
43520;DHT22;46848;51.980;5.918;2023-03-02T12:08:39;13.70;47.80
43520;DHT22;46848;51.980;5.918;2023-03-02T12:19:27;13.50;47.00
43520;DHT22;46848;51.980;5.918;2023-03-02T12:22:04;13.40;47.70
43520;DHT22;46848;51.980;5.918;2023-03-02T12:24:34;13.50;47.40
43520;DHT22;46848;51.980;5.918;2023-03-02T12:27:06;13.50;46.20
43520;DHT22;46848;51.980;5.918;2023-03-02T12:32:28;13.40;47.40
43520;DHT22;46848;51.980;5.918;2023-03-02T12:37:56;13.50;46.70
43520;DHT22;46848;51.980;5.918;2023-03-02T12:51:23;14.20;45.80
43520;DHT22;46848;51.980;5.918;2023-03-02T12:54:10;14.10;46.60
43520;DHT22;46848;51.980;5.918;2023-03-02T12:56:36;14.00;45.40
43520;DHT22;46848;51.980;5.918;2023-03-02T12:59:02;14.10;46.10
43520;DHT22;46848;51.980;5.918;2023-03-02T13:01:34;14.10;44.80
43520;DHT22;46848;51.980;5.918;2023-03-02T13:04:04;14.00;45.80
43520;DHT22;46848;51.980;5.918;2023-03-02T13:06:30;14.20;46.60
43520;DHT22;46848;51.980;5.918;2023-03-02T13:08:57;14.30;44.60
43520;DHT22;46848;51.980;5.918;2023-03-02T13:11:33;14.30;45.60
43520;DHT22;46848;51.980;5.918;2023-03-02T13:14:01;14.30;45.70
43520;DHT22;46848;51.980;5.918;2023-03-02T13:16:41;14.30;45.50
43520;DHT22;46848;51.980;5.918;2023-03-02T13:19:12;14.30;45.10
43520;DHT22;46848;51.980;5.918;2023-03-02T13:21:41;14.30;44.90
43520;DHT22;46848;51.980;5.918;2023-03-02T13:24:47;14.40;45.60
43520;DHT22;46848;51.980;5.918;2023-03-02T13:27:23;14.40;44.40
43520;DHT22;46848;51.980;5.918;2023-03-02T13:29:50;14.50;45.40
43520;DHT22;46848;51.980;5.918;2023-03-02T13:32:27;14.60;44.50
43520;DHT22;46848;51.980;5.918;2023-03-02T13:35:02;14.60;45.50
43520;DHT22;46848;51.980;5.918;2023-03-02T13:37:37;14.70;45.20
43520;DHT22;46848;51.980;5.918;2023-03-02T13:40:38;14.80;45.10
43520;DHT22;46848;51.980;5.918;2023-03-02T13:46:03;14.70;44.60
43520;DHT22;46848;51.980;5.918;2023-03-02T13:48:34;14.60;45.00
43520;DHT22;46848;51.980;5.918;2023-03-02T13:51:34;14.50;45.00
43520;DHT22;46848;51.980;5.918;2023-03-02T13:54:04;14.60;45.70
43520;DHT22;46848;51.980;5.918;2023-03-02T13:56:39;14.70;44.70
43520;DHT22;46848;51.980;5.918;2023-03-02T13:59:18;14.80;45.20
43520;DHT22;46848;51.980;5.918;2023-03-02T14:01:46;14.90;44.70
43520;DHT22;46848;51.980;5.918;2023-03-02T14:04:13;14.80;44.70
43520;DHT22;46848;51.980;5.918;2023-03-02T14:06:43;14.90;44.90
43520;DHT22;46848;51.980;5.918;2023-03-02T14:09:09;14.90;44.80
43520;DHT22;46848;51.980;5.918;2023-03-02T14:11:40;14.90;45.20
43520;DHT22;46848;51.980;5.918;2023-03-02T14:14:06;15.10;45.30
43520;DHT22;46848;51.980;5.918;2023-03-02T14:16:37;15.10;43.80
43520;DHT22;46848;51.980;5.918;2023-03-02T14:19:03;15.00;45.20
43520;DHT22;46848;51.980;5.918;2023-03-02T14:21:29;14.90;44.70
43520;DHT22;46848;51.980;5.918;2023-03-02T14:23:55;14.90;45.20
43520;DHT22;46848;51.980;5.918;2023-03-02T14:29:31;14.80;44.60
43520;DHT22;46848;51.980;5.918;2023-03-02T14:32:00;14.70;45.10
43520;DHT22;46848;51.980;5.918;2023-03-02T14:34:31;14.70;45.90
43520;DHT22;46848;51.980;5.918;2023-03-02T14:37:02;14.70;44.80
43520;DHT22;46848;51.980;5.918;2023-03-02T14:39:42;14.60;45.40
43520;DHT22;46848;51.980;5.918;2023-03-02T14:42:15;14.60;46.40
43520;DHT22;46848;51.980;5.918;2023-03-02T14:44:44;14.50;46.20
43520;DHT22;46848;51.980;5.918;2023-03-02T14:47:11;14.50;46.60
43520;DHT22;46848;51.980;5.918;2023-03-02T14:49:37;14.50;46.40
43520;DHT22;46848;51.980;5.918;2023-03-02T14:54:45;14.60;46.50
43520;DHT22;46848;51.980;5.918;2023-03-02T14:57:22;14.50;46.40
43520;DHT22;46848;51.980;5.918;2023-03-02T14:59:54;14.40;46.40
43520;DHT22;46848;51.980;5.918;2023-03-02T15:02:28;14.30;46.30
43520;DHT22;46848;51.980;5.918;2023-03-02T15:04:56;14.20;46.90
43520;DHT22;46848;51.980;5.918;2023-03-02T15:07:22;14.10;46.90
43520;DHT22;46848;51.980;5.918;2023-03-02T15:09:48;14.10;47.80
43520;DHT22;46848;51.980;5.918;2023-03-02T16:48:57;10.80;57.30
43520;DHT22;46848;51.980;5.918;2023-03-02T16:51:24;10.70;58.00
43520;DHT22;46848;51.980;5.918;2023-03-02T16:53:51;10.50;58.60
43520;DHT22;46848;51.980;5.918;2023-03-02T16:56:20;10.30;59.10
43520;DHT22;46848;51.980;5.918;2023-03-02T16:58:46;10.20;59.30
43520;DHT22;46848;51.980;5.918;2023-03-02T17:01:17;10.20;59.70
43520;DHT22;46848;51.980;5.918;2023-03-02T17:03:45;10.10;59.80
43520;DHT22;46848;51.980;5.918;2023-03-02T17:06:13;10.00;60.10
43520;DHT22;46848;51.980;5.918;2023-03-02T17:08:40;9.90;60.40
43520;DHT22;46848;51.980;5.918;2023-03-02T17:11:12;9.90;60.50
43520;DHT22;46848;51.980;5.918;2023-03-02T17:13:38;9.80;60.90
43520;DHT22;46848;51.980;5.918;2023-03-02T17:16:04;9.70;61.30
43520;DHT22;46848;51.980;5.918;2023-03-02T17:18:31;9.60;61.50
43520;DHT22;46848;51.980;5.918;2023-03-02T17:20:59;9.50;61.80
43520;DHT22;46848;51.980;5.918;2023-03-02T17:23:27;9.40;62.00
43520;DHT22;46848;51.980;5.918;2023-03-02T17:25:53;9.40;62.50
43520;DHT22;46848;51.980;5.918;2023-03-02T17:28:19;9.30;62.30
43520;DHT22;46848;51.980;5.918;2023-03-02T17:30:48;9.30;62.50
43520;DHT22;46848;51.980;5.918;2023-03-02T17:33:14;9.30;62.80
43520;DHT22;46848;51.980;5.918;2023-03-02T17:35:41;9.20;63.70
43520;DHT22;46848;51.980;5.918;2023-03-02T17:38:07;9.10;64.00
43520;DHT22;46848;51.980;5.918;2023-03-02T17:40:33;9.00;64.00
43520;DHT22;46848;51.980;5.918;2023-03-02T17:42:58;9.00;64.30
43520;DHT22;46848;51.980;5.918;2023-03-02T17:45:27;8.80;65.80
43520;DHT22;46848;51.980;5.918;2023-03-02T17:47:55;8.70;65.80
43520;DHT22;46848;51.980;5.918;2023-03-02T17:50:22;8.60;66.60
43520;DHT22;46848;51.980;5.918;2023-03-02T17:52:50;8.50;66.80
43520;DHT22;46848;51.980;5.918;2023-03-02T17:55:16;8.40;68.00
43520;DHT22;46848;51.980;5.918;2023-03-02T17:57:41;8.30;67.80
43520;DHT22;46848;51.980;5.918;2023-03-02T18:00:11;8.30;68.30
43520;DHT22;46848;51.980;5.918;2023-03-02T18:02:37;8.20;69.20
43520;DHT22;46848;51.980;5.918;2023-03-02T18:05:03;8.00;69.40
43520;DHT22;46848;51.980;5.918;2023-03-02T18:07:29;7.90;70.00
43520;DHT22;46848;51.980;5.918;2023-03-02T18:09:54;7.80;70.00
43520;DHT22;46848;51.980;5.918;2023-03-02T18:12:20;7.70;70.20
43520;DHT22;46848;51.980;5.918;2023-03-02T18:14:47;7.80;70.00
43520;DHT22;46848;51.980;5.918;2023-03-02T18:17:12;7.70;70.70
43520;DHT22;46848;51.980;5.918;2023-03-02T18:19:40;7.60;71.10
43520;DHT22;46848;51.980;5.918;2023-03-02T18:22:07;7.50;71.10
43520;DHT22;46848;51.980;5.918;2023-03-02T18:24:34;7.50;70.90
43520;DHT22;46848;51.980;5.918;2023-03-02T18:27:02;7.40;71.20
43520;DHT22;46848;51.980;5.918;2023-03-02T18:29:28;7.30;71.30
43520;DHT22;46848;51.980;5.918;2023-03-02T18:31:54;7.30;71.30
43520;DHT22;46848;51.980;5.918;2023-03-02T18:34:20;7.20;71.40
43520;DHT22;46848;51.980;5.918;2023-03-02T18:36:46;7.20;71.60
43520;DHT22;46848;51.980;5.918;2023-03-02T18:39:12;7.10;71.80
43520;DHT22;46848;51.980;5.918;2023-03-02T18:41:38;7.00;72.20
43520;DHT22;46848;51.980;5.918;2023-03-02T18:44:04;7.00;71.90